Time;durP1;ratioP1;P1;durP2;ratioP2;P2;SDS_P1;SDS_P2;PMS_P1;PMS_P2;Temp;Humidity;BMP_temperature;BMP_pressure;BME280_temperature;BME280_humidity;BME280_pressure;Samples;Min_cycle;Max_cycle;Signal;HPM_P1;HPM_P2
2023/07/26 00:01:13;;;;;;;1.23;1.13;;;;;;;13.46;85.06;99986.53;5113826;28;20230;-74
2023/07/26 00:03:40;;;;;;;1.47;1.10;;;;;;;13.45;85.21;99976.94;5105177;28;20209;-75
2023/07/26 00:06:06;;;;;;;1.70;0.93;;;;;;;13.41;85.51;99975.34;5113608;28;20206;-75
2023/07/26 00:08:33;;;;;;;3.47;1.20;;;;;;;13.41;85.57;99965.72;5113391;28;20236;-74
2023/07/26 00:10:59;;;;;;;1.77;1.20;;;;;;;13.40;85.62;99963.13;5113895;28;20227;-74
2023/07/26 00:13:25;;;;;;;2.40;1.27;;;;;;;13.35;85.97;99960.69;5113320;28;20230;-75
2023/07/26 00:15:52;;;;;;;1.97;1.70;;;;;;;13.22;85.61;99959.41;5113404;28;20252;-74
2023/07/26 00:18:20;;;;;;;1.73;1.10;;;;;;;13.27;86.25;99955.72;5113208;28;20203;-75
2023/07/26 00:20:46;;;;;;;3.00;1.50;;;;;;;13.30;86.24;99946.94;5113601;28;20242;-75
2023/07/26 00:23:13;;;;;;;4.30;1.53;;;;;;;13.34;86.01;99947.66;5113037;28;20201;-73
2023/07/26 00:25:39;;;;;;;1.13;0.97;;;;;;;13.32;86.33;99945.09;5104699;28;20199;-74
2023/07/26 00:28:05;;;;;;;1.67;1.00;;;;;;;13.29;86.44;99950.41;5113166;28;20210;-74
2023/07/26 00:30:32;;;;;;;1.63;1.30;;;;;;;13.28;86.36;99949.56;5104845;28;20232;-74
2023/07/26 00:32:58;;;;;;;2.57;1.30;;;;;;;13.18;86.25;99955.19;5112737;28;20207;-75
2023/07/26 00:35:28;;;;;;;1.50;1.30;;;;;;;13.24;86.45;99960.22;5112794;28;20700;-74
2023/07/26 00:37:55;;;;;;;2.93;1.20;;;;;;;13.27;86.09;99967.97;5112339;28;20226;-74
2023/07/26 00:40:21;;;;;;;2.27;1.20;;;;;;;13.28;86.65;99967.94;5113173;28;20282;-74
2023/07/26 00:42:48;;;;;;;2.80;1.10;;;;;;;13.27;86.33;99967.97;5112692;28;20219;-74
2023/07/26 00:45:14;;;;;;;1.20;1.00;;;;;;;13.25;86.50;99973.28;5112890;28;20656;-74
2023/07/26 00:47:41;;;;;;;1.90;1.23;;;;;;;13.24;86.64;99974.19;5112257;28;20205;-74
2023/07/26 00:50:09;;;;;;;2.13;1.23;;;;;;;13.23;86.73;99974.25;5112934;28;20227;-74
2023/07/26 00:52:39;;;;;;;1.47;1.37;;;;;;;13.21;86.05;99984.78;5112059;28;20702;-74
2023/07/26 00:55:06;;;;;;;1.97;0.97;;;;;;;13.21;86.25;99976.06;5112676;28;20210;-74
2023/07/26 00:57:33;;;;;;;2.43;1.37;;;;;;;13.21;86.68;99971.69;5112396;28;20715;-74
2023/07/26 00:59:59;;;;;;;2.50;1.27;;;;;;;13.04;86.12;99980.19;5112406;28;20222;-74
2023/07/26 01:02:26;;;;;;;2.77;1.30;;;;;;;13.06;86.53;99980.09;5111181;28;20214;-75
2023/07/26 01:04:53;;;;;;;1.40;1.30;;;;;;;13.06;87.68;99962.63;5105836;28;20210;-74
2023/07/26 01:07:27;;;;;;;2.27;1.10;;;;;;;13.09;87.32;99959.03;5111713;28;20213;-74
2023/07/26 01:10:06;;;;;;;1.67;1.57;;;;;;;13.15;87.24;99963.19;5112575;28;20199;-75
2023/07/26 01:12:38;;;;;;;3.63;1.33;;;;;;;13.04;87.83;99961.84;5112337;28;20211;-74
2023/07/26 01:15:08;;;;;;;5.30;1.40;;;;;;;13.03;87.77;99959.25;5112719;28;20234;-74
2023/07/26 01:17:35;;;;;;;2.00;1.33;;;;;;;12.84;87.73;99956.44;5111958;28;20726;-74
2023/07/26 01:20:01;;;;;;;1.60;1.30;;;;;;;12.89;87.86;99957.16;5112639;28;20226;-74
2023/07/26 01:22:29;;;;;;;3.33;1.33;;;;;;;12.97;87.89;99951.63;5111662;28;20213;-74
2023/07/26 01:24:56;;;;;;;2.07;1.20;;;;;;;12.98;87.56;99946.31;5112390;28;20210;-74
2023/07/26 01:27:23;;;;;;;1.77;1.40;;;;;;;12.90;87.93;99956.22;5112107;28;20260;-74
2023/07/26 01:29:54;;;;;;;2.10;1.30;;;;;;;12.90;87.64;99956.22;5112316;28;20200;-74
2023/07/26 01:32:23;;;;;;;2.30;1.33;;;;;;;12.86;87.42;99965.97;5112030;28;20218;-74
2023/07/26 01:34:50;;;;;;;2.27;1.33;;;;;;;12.94;87.26;99960.44;5112512;28;20204;-75
2023/07/26 01:37:18;;;;;;;2.03;1.20;;;;;;;12.98;87.74;99967.28;5111223;28;20242;-75
2023/07/26 01:39:46;;;;;;;1.70;1.00;;;;;;;12.98;87.79;99954.16;5112022;28;20207;-74
2023/07/26 01:42:13;;;;;;;2.10;1.10;;;;;;;12.96;87.89;99969.09;5112168;28;20214;-75
2023/07/26 01:44:39;;;;;;;2.57;1.30;;;;;;;12.91;88.50;99961.41;5112042;28;20218;-74
2023/07/26 01:47:06;;;;;;;1.90;1.20;;;;;;;12.96;87.79;99960.38;5111681;28;20681;-74
2023/07/26 01:49:33;;;;;;;2.47;1.50;;;;;;;12.93;87.71;99958.75;5112205;28;20232;-75
2023/07/26 01:51:59;;;;;;;1.37;1.27;;;;;;;12.97;87.76;99964.72;5112049;28;20592;-75
2023/07/26 01:54:26;;;;;;;2.00;1.50;;;;;;;12.94;87.28;99976.16;5111384;28;20203;-74
2023/07/26 01:56:53;;;;;;;1.53;1.10;;;;;;;12.94;87.73;99970.91;5112014;28;20231;-74
2023/07/26 01:59:20;;;;;;;2.80;1.23;;;;;;;12.97;87.39;99970.81;5111679;28;20671;-75
2023/07/26 02:01:46;;;;;;;0.93;0.93;;;;;;;12.98;86.92;99985.63;5111676;28;20226;-74
2023/07/26 02:04:13;;;;;;;2.07;1.10;;;;;;;12.92;87.28;99975.34;5112199;28;20198;-74
2023/07/26 02:06:39;;;;;;;2.50;1.33;;;;;;;12.69;88.23;99970.97;5111435;28;20202;-74
2023/07/26 02:09:06;;;;;;;3.43;1.50;;;;;;;12.78;87.85;99960.13;5111807;28;20731;-75
2023/07/26 02:11:32;;;;;;;2.57;1.50;;;;;;;12.80;88.55;99944.38;5114016;28;20248;-74
2023/07/26 02:14:00;;;;;;;1.13;1.03;;;;;;;12.81;88.91;99940.84;5115652;28;20290;-74
2023/07/26 02:16:27;;;;;;;1.53;0.90;;;;;;;12.84;89.02;99938.13;5115483;28;20598;-75
2023/07/26 02:18:53;;;;;;;1.87;1.20;;;;;;;12.79;88.52;99942.69;5116103;28;20297;-74
2023/07/26 02:21:19;;;;;;;1.93;1.23;;;;;;;12.77;89.46;99924.41;5115493;28;20229;-75
2023/07/26 02:23:46;;;;;;;1.97;1.10;;;;;;;12.79;89.56;99916.50;5115223;28;20202;-75
2023/07/26 02:26:15;;;;;;;1.30;0.90;;;;;;;12.79;89.71;99922.56;5115511;28;20197;-75
2023/07/26 02:28:42;;;;;;;4.30;1.43;;;;;;;12.80;89.23;99933.91;5115876;28;20208;-74
2023/07/26 02:31:10;;;;;;;1.33;1.10;;;;;;;12.77;89.07;99919.16;5115448;28;20218;-74
2023/07/26 02:33:36;;;;;;;1.60;1.20;;;;;;;12.76;88.93;99938.38;5115644;28;20607;-74
2023/07/26 02:36:03;;;;;;;1.70;1.30;;;;;;;12.72;89.44;99918.47;5114929;28;20203;-75
2023/07/26 02:38:29;;;;;;;2.83;1.40;;;;;;;12.70;89.88;99929.00;5114810;28;20234;-74
2023/07/26 02:40:56;;;;;;;1.47;1.00;;;;;;;12.69;90.17;99924.66;5115827;28;20230;-76
2023/07/26 02:43:22;;;;;;;1.60;1.50;;;;;;;12.65;89.92;99928.31;5114984;28;20632;-75
2023/07/26 02:45:49;;;;;;;1.43;1.30;;;;;;;12.64;90.11;99928.34;5115197;28;20199;-75
2023/07/26 02:48:17;;;;;;;1.33;1.17;;;;;;;12.67;90.13;99921.25;5114989;28;20202;-74
2023/07/26 02:50:43;;;;;;;3.53;1.50;;;;;;;12.65;90.17;99927.47;5114956;28;20227;-74
2023/07/26 02:53:09;;;;;;;1.30;1.20;;;;;;;12.64;90.09;99929.22;5114376;28;20201;-75
2023/07/26 02:55:36;;;;;;;1.90;1.20;;;;;;;12.65;90.21;99936.16;5106518;28;20715;-75
2023/07/26 02:58:02;;;;;;;1.07;1.07;;;;;;;12.63;90.36;99937.97;5114823;28;20650;-75
2023/07/26 03:00:29;;;;;;;1.20;1.10;;;;;;;12.62;89.88;99948.50;5115043;28;20228;-74
2023/07/26 03:02:55;;;;;;;2.23;1.10;;;;;;;12.61;90.19;99942.44;5114913;28;20278;-75
2023/07/26 03:05:23;;;;;;;1.27;1.17;;;;;;;12.64;90.05;99946.69;5114770;28;20206;-74
2023/07/26 03:07:49;;;;;;;2.37;1.13;;;;;;;12.63;90.28;99950.22;5114595;28;20197;-74
2023/07/26 03:10:17;;;;;;;1.40;1.30;;;;;;;12.64;90.44;99941.44;5114981;28;20228;-75
2023/07/26 03:12:43;;;;;;;1.70;1.60;;;;;;;12.59;90.89;99940.78;5114570;28;20213;-75
2023/07/26 03:15:10;;;;;;;2.53;1.10;;;;;;;12.61;91.13;99937.19;5114664;28;20208;-75
2023/07/26 03:17:36;;;;;;;1.30;1.20;;;;;;;12.59;91.11;99944.25;5114238;28;20227;-75
2023/07/26 03:20:04;;;;;;;2.63;1.47;;;;;;;12.56;90.85;99948.72;5114579;28;20233;-74
2023/07/26 03:22:31;;;;;;;1.90;1.13;;;;;;;12.55;90.63;99947.00;5112250;28;20249;-75
2023/07/26 03:24:58;;;;;;;2.40;1.17;;;;;;;12.52;91.03;99940.97;5114787;28;20289;-75
2023/07/26 03:27:24;;;;;;;1.30;1.20;;;;;;;12.52;90.98;99937.50;5113903;28;20199;-74
2023/07/26 03:29:51;;;;;;;2.10;1.20;;;;;;;12.56;90.86;99940.88;5114224;28;20242;-74
2023/07/26 03:32:17;;;;;;;2.33;1.77;;;;;;;12.50;90.87;99949.78;5105628;28;20214;-75
2023/07/26 03:34:44;;;;;;;3.80;1.43;;;;;;;12.56;90.91;99946.94;5114549;28;20218;-75
2023/07/26 03:37:11;;;;;;;3.00;1.33;;;;;;;12.61;90.45;99947.66;5107913;28;20230;-75
2023/07/26 03:39:38;;;;;;;1.53;1.33;;;;;;;12.56;90.02;99965.28;5111568;28;20628;-74
2023/07/26 03:42:05;;;;;;;1.57;1.47;;;;;;;12.66;90.13;99964.03;5114345;28;20222;-75
2023/07/26 03:44:32;;;;;;;1.50;1.37;;;;;;;12.67;90.04;99975.41;5113975;28;20211;-75
2023/07/26 03:46:58;;;;;;;4.80;1.53;;;;;;;12.67;89.54;99984.09;5113858;28;20210;-74
2023/07/26 03:49:25;;;;;;;1.60;1.47;;;;;;;12.59;88.65;100009.69;5114386;28;20206;-75
2023/07/26 03:51:51;;;;;;;1.60;1.50;;;;;;;12.43;89.40;99993.66;5114036;28;20230;-75
2023/07/26 03:54:18;;;;;;;3.63;1.80;;;;;;;12.56;89.89;99982.75;5113243;28;20607;-74
2023/07/26 03:56:46;;;;;;;1.77;1.60;;;;;;;12.63;89.63;99989.50;5113813;28;20206;-75
2023/07/26 03:59:12;;;;;;;1.53;1.30;;;;;;;12.74;88.65;99995.22;5113611;28;20205;-74
2023/07/26 04:01:39;;;;;;;2.50;1.40;;;;;;;12.68;88.25;100006.75;5113705;28;20219;-74
2023/07/26 04:04:05;;;;;;;2.40;1.57;;;;;;;12.79;88.47;100018.63;5113675;28;20203;-75
2023/07/26 04:06:31;;;;;;;2.57;1.33;;;;;;;12.84;88.14;100020.19;5113639;28;20680;-75
2023/07/26 04:08:58;;;;;;;2.63;2.43;;;;;;;12.94;87.97;100027.69;5113136;28;20206;-75
2023/07/26 04:11:24;;;;;;;2.50;1.47;;;;;;;12.98;88.16;100027.53;5113397;28;20241;-74
2023/07/26 04:13:52;;;;;;;3.03;1.87;;;;;;;12.98;87.95;100031.94;5113038;28;20214;-75
2023/07/26 04:16:20;;;;;;;2.77;1.57;;;;;;;13.00;87.95;100038.84;5113087;28;20657;-74
2023/07/26 04:18:47;;;;;;;2.07;1.70;;;;;;;13.05;87.84;100046.53;5113752;28;20313;-75
2023/07/26 04:21:15;;;;;;;1.87;1.67;;;;;;;12.95;88.14;100056.47;5106167;28;20222;-75
2023/07/26 04:23:42;;;;;;;2.53;1.70;;;;;;;12.95;88.26;100046.00;5092597;28;20214;-74
2023/07/26 04:26:08;;;;;;;2.97;1.60;;;;;;;12.99;88.28;100047.59;5092847;28;20196;-75
2023/07/26 04:28:35;;;;;;;3.13;1.70;;;;;;;13.03;88.30;100045.72;5109389;28;20199;-75
2023/07/26 04:31:03;;;;;;;1.90;1.50;;;;;;;13.06;87.50;100050.84;5113407;28;20587;-75
2023/07/26 04:33:30;;;;;;;1.57;1.47;;;;;;;12.94;88.17;100060.00;5112646;28;20240;-74
2023/07/26 04:35:57;;;;;;;1.83;1.73;;;;;;;13.04;88.71;100037.81;5112995;28;20578;-75
2023/07/26 04:38:24;;;;;;;2.43;1.80;;;;;;;13.02;88.46;100039.66;5112117;28;20695;-74
2023/07/26 04:40:50;;;;;;;2.67;1.77;;;;;;;13.11;88.51;100044.53;5112899;28;20817;-74
2023/07/26 04:43:19;;;;;;;3.73;2.10;;;;;;;12.96;88.63;100033.75;5112407;28;20627;-75
2023/07/26 04:45:46;;;;;;;2.10;1.87;;;;;;;12.88;89.44;100018.28;5112995;28;20203;-75
2023/07/26 04:48:14;;;;;;;1.80;1.37;;;;;;;12.99;90.37;100004.84;5112907;28;20199;-74
2023/07/26 04:50:40;;;;;;;2.30;2.10;;;;;;;13.09;89.82;100011.44;5112864;28;20226;-74
2023/07/26 04:53:07;;;;;;;5.43;1.93;;;;;;;13.12;88.90;100019.19;5112502;28;20200;-74
2023/07/26 04:55:33;;;;;;;2.90;1.80;;;;;;;13.19;88.66;100036.41;5112654;28;20207;-74
2023/07/26 04:57:59;;;;;;;2.00;1.90;;;;;;;13.23;88.68;100045.00;5112529;28;20234;-74
2023/07/26 05:00:26;;;;;;;3.00;1.67;;;;;;;13.22;88.33;100057.28;5112931;28;20222;-75
2023/07/26 05:02:52;;;;;;;2.67;1.87;;;;;;;13.26;88.29;100058.88;5112423;28;20203;-75
2023/07/26 05:05:20;;;;;;;3.17;1.80;;;;;;;13.28;87.61;100074.56;5112467;28;20660;-75
2023/07/26 05:07:47;;;;;;;4.17;1.70;;;;;;;13.29;87.58;100076.25;5111699;28;20203;-74
2023/07/26 05:10:13;;;;;;;7.33;1.90;;;;;;;13.34;87.99;100081.34;5112283;28;20548;-74
2023/07/26 05:12:41;;;;;;;2.07;1.57;;;;;;;13.31;87.30;100091.03;5112454;28;20578;-75
2023/07/26 05:15:08;;;;;;;2.03;1.80;;;;;;;13.26;87.94;100079.84;5112449;28;20206;-75
2023/07/26 05:17:35;;;;;;;2.50;1.63;;;;;;;13.29;88.77;100073.63;5111953;28;20572;-75
2023/07/26 05:20:01;;;;;;;4.33;1.73;;;;;;;13.28;87.82;100088.50;5112294;28;20218;-74
2023/07/26 05:22:29;;;;;;;2.37;1.70;;;;;;;13.33;87.52;100080.50;5111592;28;20238;-75
2023/07/26 05:24:56;;;;;;;2.30;1.77;;;;;;;13.34;87.42;100092.72;5112128;28;20252;-74
2023/07/26 05:27:22;;;;;;;2.27;1.80;;;;;;;13.34;87.55;100095.31;5112137;28;20249;-75
2023/07/26 05:29:49;;;;;;;3.57;1.87;;;;;;;13.31;87.07;100098.03;5112128;28;20199;-75
2023/07/26 05:32:15;;;;;;;2.03;1.70;;;;;;;13.37;87.42;100103.06;5112032;28;20213;-75
2023/07/26 05:34:41;;;;;;;6.30;2.07;;;;;;;13.44;87.16;100108.97;5112149;28;20225;-74
2023/07/26 05:37:08;;;;;;;2.30;1.97;;;;;;;13.32;87.36;100115.50;5111599;28;20206;-75
2023/07/26 05:39:36;;;;;;;3.13;1.60;;;;;;;13.42;86.96;100113.38;5112090;28;20233;-75
2023/07/26 05:42:02;;;;;;;2.87;2.10;;;;;;;13.46;87.58;100115.00;5112006;28;20214;-74
2023/07/26 05:44:29;;;;;;;2.13;1.70;;;;;;;13.57;87.59;100104.13;5105068;22;20239;-80
2023/07/26 05:46:55;;;;;;;2.30;2.00;;;;;;;13.55;87.79;100112.03;5094237;28;20565;-79
2023/07/26 05:49:21;;;;;;;1.83;1.73;;;;;;;13.62;87.35;100116.16;5097551;28;20203;-80
2023/07/26 05:51:48;;;;;;;3.10;1.83;;;;;;;13.69;87.51;100109.75;5097488;28;20257;-81
2023/07/26 05:54:14;;;;;;;1.83;1.70;;;;;;;13.70;88.09;100114.09;5097037;28;20261;-79
2023/07/26 05:56:42;;;;;;;3.47;1.90;;;;;;;13.70;87.27;100113.25;5096354;28;20268;-80
2023/07/26 05:59:08;;;;;;;2.53;2.10;;;;;;;13.72;87.46;100118.44;5089281;28;20228;-79
2023/07/26 06:01:35;;;;;;;4.27;2.10;;;;;;;13.80;86.92;100119.00;5092812;28;20210;-80
2023/07/26 06:04:01;;;;;;;1.90;1.77;;;;;;;13.85;86.88;100132.78;5096098;28;20302;-82
2023/07/26 06:06:28;;;;;;;3.23;2.23;;;;;;;13.75;87.33;100134.91;5094667;28;20203;-78
2023/07/26 06:08:54;;;;;;;3.43;2.10;;;;;;;13.59;87.47;100131.13;5078553;28;20197;-79
2023/07/26 06:11:20;;;;;;;1.90;1.80;;;;;;;13.73;88.10;100120.13;5076661;28;20212;-82
2023/07/26 06:13:48;;;;;;;2.40;2.20;;;;;;;13.85;88.46;100103.94;5078808;28;20231;-81
2023/07/26 06:16:15;;;;;;;2.47;2.20;;;;;;;13.93;87.20;100125.47;5077705;28;20204;-83
2023/07/26 06:18:41;;;;;;;2.20;2.00;;;;;;;13.72;87.53;100135.03;5077035;28;20235;-81
2023/07/26 06:21:08;;;;;;;2.27;2.03;;;;;;;13.75;86.81;100129.66;5077584;28;20203;-82
2023/07/26 06:23:34;;;;;;;3.07;2.00;;;;;;;13.76;87.27;100135.78;5076489;28;20208;-80
2023/07/26 06:26:00;;;;;;;2.03;1.63;;;;;;;13.88;87.47;100130.06;5077736;28;20204;-82
2023/07/26 06:28:27;;;;;;;3.77;2.00;;;;;;;13.76;86.34;100143.66;5075409;28;20258;-83
2023/07/26 06:30:56;;;;;;;3.17;2.27;;;;;;;13.95;87.12;100131.53;5079666;28;20219;-85
2023/07/26 06:33:22;;;;;;;2.10;1.90;;;;;;;13.83;87.15;100139.88;5078186;28;20273;-83
2023/07/26 06:35:49;;;;;;;2.10;1.90;;;;;;;14.04;88.10;100120.69;5078436;28;20794;-84
2023/07/26 06:38:15;;;;;;;2.70;2.30;;;;;;;14.20;88.00;100118.31;5081664;28;20227;-87
2023/07/26 06:40:42;;;;;;;2.90;2.00;;;;;;;13.94;86.86;100148.19;5082223;28;20214;-86
2023/07/26 06:43:08;;;;;;;2.33;1.87;;;;;;;14.19;86.63;100150.75;5082154;28;20293;-85
2023/07/26 06:45:35;;;;;;;4.43;2.00;;;;;;;14.13;85.91;100160.63;5089899;28;20640;-85
2023/07/26 06:48:02;;;;;;;2.37;1.70;;;;;;;14.19;85.83;100168.25;5097103;28;20212;-85
2023/07/26 06:50:29;;;;;;;2.17;1.90;;;;;;;14.33;86.08;100173.84;5097314;28;20234;-85
2023/07/26 06:53:06;;;;;;;3.63;2.37;;;;;;;14.17;84.65;100201.59;5096818;28;20222;-85
2023/07/26 06:55:33;;;;;;;2.23;2.00;;;;;;;14.24;85.14;100205.72;5097407;28;20265;-83
2023/07/26 06:57:59;;;;;;;2.40;1.83;;;;;;;14.19;86.02;100199.75;5099435;28;20709;-83
2023/07/26 07:00:26;;;;;;;2.40;2.23;;;;;;;14.28;85.43;100195.03;5099969;28;20208;-83
2023/07/26 07:02:55;;;;;;;2.40;2.20;;;;;;;14.41;85.55;100191.91;5094093;28;20206;-85
2023/07/26 07:05:23;;;;;;;3.37;2.33;;;;;;;14.30;84.55;100213.34;5083013;28;20285;-83
2023/07/26 07:07:49;;;;;;;3.00;2.30;;;;;;;14.20;84.74;100219.88;5082928;28;20203;-84
2023/07/26 07:10:16;;;;;;;2.03;1.90;;;;;;;14.31;85.41;100204.56;5085777;28;20241;-83
2023/07/26 07:12:42;;;;;;;2.17;2.00;;;;;;;14.25;84.75;100212.66;5080793;28;20219;-83
2023/07/26 07:15:09;;;;;;;2.50;2.07;;;;;;;14.42;85.71;100202.38;5083779;28;20235;-82
2023/07/26 07:17:36;;;;;;;3.23;2.13;;;;;;;14.42;84.90;100212.88;5084201;28;20229;-84
2023/07/26 07:20:03;;;;;;;3.33;2.07;;;;;;;14.52;85.41;100210.75;5085624;28;20223;-82
2023/07/26 07:22:31;;;;;;;2.63;1.93;;;;;;;14.53;84.50;100225.59;5083313;28;20203;-83
2023/07/26 07:24:57;;;;;;;2.27;1.90;;;;;;;14.77;85.16;100207.19;5080977;28;20702;-83
2023/07/26 07:27:24;;;;;;;2.40;2.03;;;;;;;15.02;84.98;100207.88;5082371;28;20260;-82
2023/07/26 07:29:50;;;;;;;2.10;1.90;;;;;;;15.13;82.69;100253.94;5099899;28;20564;-82
2023/07/26 07:32:17;;;;;;;2.50;1.73;;;;;;;14.88;80.87;100310.09;5083147;28;20627;-81
2023/07/26 07:34:43;;;;;;;3.90;2.13;;;;;;;14.66;78.85;100337.19;5098572;28;20609;-85
2023/07/26 07:37:10;;;;;;;1.80;1.70;;;;;;;14.75;78.67;100372.78;5088784;28;20205;-78
2023/07/26 07:39:38;;;;;;;3.30;1.40;;;;;;;14.85;78.29;100395.19;5086975;28;20223;-81
2023/07/26 07:42:05;;;;;;;1.50;1.40;;;;;;;14.96;77.53;100420.19;5099293;28;20219;-82
2023/07/26 07:44:31;;;;;;;2.43;1.80;;;;;;;15.13;77.30;100425.69;5098941;28;20266;-82
2023/07/26 07:46:58;;;;;;;3.53;1.80;;;;;;;15.24;78.10;100433.16;5101305;28;20732;-82
2023/07/26 07:49:25;;;;;;;2.30;1.67;;;;;;;15.35;78.15;100430.13;5099470;28;20253;-83
2023/07/26 07:51:52;;;;;;;2.63;1.73;;;;;;;15.43;77.87;100425.41;5092042;28;20269;-83
2023/07/26 07:54:18;;;;;;;2.10;1.73;;;;;;;15.47;78.59;100414.69;5091667;28;20224;-80
2023/07/26 07:56:46;;;;;;;1.93;1.83;;;;;;;15.22;76.76;100434.97;5096455;28;20207;-79
2023/07/26 07:59:12;;;;;;;2.00;1.80;;;;;;;15.26;78.47;100420.78;5097770;28;20247;-80
2023/07/26 08:01:41;;;;;;;2.50;1.77;;;;;;;15.31;78.24;100410.97;5092860;28;20215;-84
2023/07/26 08:04:07;;;;;;;3.03;2.10;;;;;;;15.16;77.86;100419.44;5089876;28;20232;-85
2023/07/26 08:06:34;;;;;;;2.87;1.90;;;;;;;15.27;78.17;100423.38;5098970;28;20211;-88
2023/07/26 08:09:01;;;;;;;2.67;2.10;;;;;;;15.41;78.90;100400.94;5096259;28;20580;-84
2023/07/26 08:11:27;;;;;;;2.77;1.83;;;;;;;15.48;77.43;100410.31;5098401;28;20205;-83
2023/07/26 08:13:55;;;;;;;2.77;2.07;;;;;;;15.40;77.29;100436.91;5080433;28;20718;-80
2023/07/26 08:16:21;;;;;;;2.67;1.87;;;;;;;15.21;76.06;100470.94;5088323;28;20211;-82
2023/07/26 08:18:47;;;;;;;2.30;2.00;;;;;;;15.37;77.38;100437.03;5098029;28;20235;-81
2023/07/26 08:21:32;;;;;;;2.20;2.00;;;;;;;15.35;75.76;100467.78;5098266;28;20200;-83
2023/07/26 08:23:58;;;;;;;1.97;1.87;;;;;;;15.49;76.48;100464.63;5097577;28;20289;-83
2023/07/26 08:26:25;;;;;;;2.53;2.00;;;;;;;15.58;75.81;100466.91;5097725;28;20227;-80
2023/07/26 08:28:51;;;;;;;2.03;1.90;;;;;;;15.58;74.19;100487.09;5096966;28;20205;-80
2023/07/26 08:31:19;;;;;;;2.20;2.00;;;;;;;15.78;73.88;100503.00;5080315;28;20578;-81
2023/07/26 08:33:45;;;;;;;1.93;1.57;;;;;;;15.85;72.78;100530.78;5097194;28;20225;-83
2023/07/26 08:36:12;;;;;;;2.40;1.80;;;;;;;16.05;73.36;100523.88;5097838;28;20208;-82
2023/07/26 08:38:38;;;;;;;2.10;1.53;;;;;;;16.05;71.39;100561.59;5098245;28;20235;-83
2023/07/26 08:41:06;;;;;;;2.60;1.40;;;;;;;16.06;71.44;100599.31;5087548;28;20208;-82
2023/07/26 08:43:37;;;;;;;1.67;1.57;;;;;;;15.87;69.54;100655.28;5091077;28;20231;-81
2023/07/26 08:46:07;;;;;;;1.57;1.47;;;;;;;15.98;68.96;100673.34;5098524;28;20236;-82
2023/07/26 08:48:37;;;;;;;2.77;1.70;;;;;;;16.05;68.01;100701.16;5098778;28;20720;-83
2023/07/26 08:51:03;;;;;;;2.33;1.73;;;;;;;15.93;68.23;100706.88;5096485;28;20211;-80
2023/07/26 08:53:31;;;;;;;3.10;1.50;;;;;;;15.95;68.17;100723.47;5081098;28;20207;-81
2023/07/26 08:55:57;;;;;;;2.67;1.67;;;;;;;16.06;70.41;100696.75;5095740;28;20258;-80
2023/07/26 08:58:24;;;;;;;2.47;1.70;;;;;;;16.04;72.25;100628.34;5096269;28;20207;-80
2023/07/26 09:00:50;;;;;;;1.83;1.60;;;;;;;15.65;73.74;100584.16;5096087;28;20212;-81
2023/07/26 09:03:17;;;;;;;2.73;1.37;;;;;;;15.57;76.72;100507.28;5097294;28;20196;-80
2023/07/26 09:05:45;;;;;;;2.70;1.47;;;;;;;15.22;77.13;100484.94;5085609;28;20224;-78
2023/07/26 09:08:12;;;;;;;1.60;1.50;;;;;;;15.14;80.75;100371.31;5093582;28;20212;-79
2023/07/26 09:10:40;;;;;;;2.17;1.80;;;;;;;15.16;83.69;100288.81;5096268;28;20200;-80
2023/07/26 09:13:10;;;;;;;2.97;1.87;;;;;;;14.75;86.21;100223.03;5086035;28;20211;-80
2023/07/26 09:15:37;;;;;;;2.43;1.70;;;;;;;14.78;89.60;100119.56;5089309;28;20617;-80
2023/07/26 09:18:04;;;;;;;3.40;2.00;;;;;;;14.78;91.81;100054.72;5095925;28;20248;-80
2023/07/26 09:20:32;;;;;;;2.50;2.00;;;;;;;14.69;92.81;100019.19;5095286;28;20310;-80
2023/07/26 09:23:04;;;;;;;2.50;2.30;;;;;;;14.86;92.52;100004.47;5094534;28;20856;-81
2023/07/26 09:25:32;;;;;;;3.63;2.33;;;;;;;14.96;89.90;100034.66;5095776;28;20227;-81
2023/07/26 09:27:59;;;;;;;2.27;2.07;;;;;;;15.01;90.38;100037.13;5095327;28;20218;-83
2023/07/26 09:30:26;;;;;;;2.63;2.43;;;;;;;15.08;90.41;100033.28;5087774;28;20669;-82
2023/07/26 09:32:52;;;;;;;2.30;2.13;;;;;;;15.24;89.86;100049.22;5095990;28;20215;-83
2023/07/26 09:35:19;;;;;;;2.57;2.30;;;;;;;15.41;89.17;100062.47;5095985;28;20227;-81
2023/07/26 09:37:45;;;;;;;3.07;2.33;;;;;;;15.53;90.50;100061.06;5095111;28;20204;-84
2023/07/26 09:40:13;;;;;;;3.57;2.40;;;;;;;15.59;88.82;100079.22;5095988;28;20620;-81
2023/07/26 09:42:44;;;;;;;1.80;1.70;;;;;;;15.39;77.76;100237.91;5095538;28;20673;-81
2023/07/26 09:45:15;;;;;;;3.10;1.80;;;;;;;15.45;79.69;100305.19;5095227;28;20300;-81
2023/07/26 09:47:42;;;;;;;3.60;2.30;;;;;;;15.55;82.51;100274.97;5096348;28;20242;-84
2023/07/26 09:50:24;;;;;;;2.10;1.90;;;;;;;15.65;81.26;100289.44;5095515;28;20218;-82
2023/07/26 09:52:52;;;;;;;2.47;2.27;;;;;;;15.81;81.71;100284.41;5095357;28;20215;-84
2023/07/26 09:55:21;;;;;;;2.20;2.00;;;;;;;15.91;77.96;100340.13;5096094;28;20238;-82
2023/07/26 09:57:48;;;;;;;2.00;1.80;;;;;;;16.01;76.44;100380.94;5096051;28;20207;-83
2023/07/26 10:00:16;;;;;;;2.90;1.70;;;;;;;16.21;77.79;100376.59;5095110;28;20267;-81
2023/07/26 10:02:46;;;;;;;1.60;1.50;;;;;;;16.36;73.93;100425.16;5095308;28;20219;-83
2023/07/26 10:05:16;;;;;;;1.67;1.30;;;;;;;16.47;73.46;100478.22;5095354;28;20232;-84
2023/07/26 10:07:44;;;;;;;2.10;1.60;;;;;;;16.50;71.79;100545.75;5095394;28;20232;-83
2023/07/26 10:10:12;;;;;;;1.37;1.27;;;;;;;16.50;68.71;100609.84;5096107;28;20231;-81
2023/07/26 10:12:40;;;;;;;2.20;1.40;;;;;;;16.66;67.47;100663.66;5095718;28;20685;-83
2023/07/26 10:15:10;;;;;;;1.40;1.30;;;;;;;16.89;69.41;100672.44;5095110;28;20574;-82
2023/07/26 10:17:39;;;;;;;1.10;1.00;;;;;;;17.07;63.09;100773.69;5094926;28;20197;-81
2023/07/26 10:20:09;;;;;;;1.10;1.10;;;;;;;17.21;61.62;100868.09;5095863;28;20232;-83
2023/07/26 10:22:36;;;;;;;1.50;1.13;;;;;;;17.34;61.13;100918.59;5082903;28;20217;-81
2023/07/26 10:25:06;;;;;;;2.33;1.30;;;;;;;17.16;61.16;100951.81;5092222;28;20228;-84
2023/07/26 10:27:33;;;;;;;2.27;1.20;;;;;;;17.00;63.27;100927.78;5095286;28;20198;-82
2023/07/26 10:30:01;;;;;;;2.00;1.33;;;;;;;16.89;64.59;100867.56;5095749;28;20205;-82
2023/07/26 10:32:28;;;;;;;1.40;1.30;;;;;;;16.67;64.68;100857.78;5081296;28;20205;-79
2023/07/26 10:34:55;;;;;;;1.10;1.10;;;;;;;16.66;63.93;100836.75;5098155;28;20228;-85
2023/07/26 10:37:22;;;;;;;2.00;1.27;;;;;;;16.91;61.58;100870.13;5082377;28;20236;-82
2023/07/26 10:39:50;;;;;;;1.37;1.13;;;;;;;16.90;59.42;100934.34;5099104;28;20226;-80
2023/07/26 10:42:24;;;;;;;1.63;1.20;;;;;;;17.01;59.14;100959.41;5098937;28;20266;-82
2023/07/26 10:44:50;;;;;;;1.70;1.27;;;;;;;17.23;60.53;100955.94;5099009;28;20748;-83
2023/07/26 10:47:18;;;;;;;1.10;1.10;;;;;;;17.46;60.41;100955.03;5098842;28;20214;-80
2023/07/26 10:49:48;;;;;;;1.40;1.30;;;;;;;17.66;59.69;100941.06;5093072;28;20209;-78
2023/07/26 10:52:15;;;;;;;1.60;1.50;;;;;;;17.79;59.39;100938.78;5086161;28;20661;-80
2023/07/26 10:54:43;;;;;;;1.50;1.40;;;;;;;17.74;58.49;100969.78;5098501;28;20230;-81
2023/07/26 10:57:17;;;;;;;1.50;1.40;;;;;;;17.88;57.66;100982.47;5099026;28;20600;-80
2023/07/26 10:59:54;;;;;;;1.43;1.23;;;;;;;17.83;56.62;100996.72;5100260;28;20230;-81
2023/07/26 11:02:43;;;;;;;1.40;1.17;;;;;;;18.07;57.92;100994.00;5099914;28;20580;-79
2023/07/26 11:05:20;;;;;;;1.33;1.10;;;;;;;18.02;54.58;101033.81;5091265;28;20230;-80
2023/07/26 11:07:59;;;;;;;1.03;1.03;;;;;;;18.06;55.00;101079.47;5087763;28;20272;-82
2023/07/26 11:10:29;;;;;;;1.13;1.07;;;;;;;18.38;55.02;101064.09;5099314;28;20206;-80
2023/07/26 11:13:09;;;;;;;1.03;0.90;;;;;;;18.64;53.67;101073.56;5099531;28;20277;-80
2023/07/26 11:15:37;;;;;;;1.63;1.10;;;;;;;18.71;53.90;101122.66;5084874;28;20221;-81
2023/07/26 11:18:05;;;;;;;0.93;0.90;;;;;;;18.86;54.00;101123.81;5082595;28;20211;-80
2023/07/26 11:20:32;;;;;;;1.10;1.03;;;;;;;18.85;52.57;101143.25;5090555;28;20229;-80
2023/07/26 11:22:58;;;;;;;1.17;0.90;;;;;;;19.09;53.75;101144.00;5098645;28;20214;-84
2023/07/26 11:25:25;;;;;;;1.20;1.10;;;;;;;19.11;51.72;101162.44;5098498;28;20230;-82
2023/07/26 11:27:52;;;;;;;1.10;1.00;;;;;;;19.15;51.10;101201.09;5090818;28;20238;-84
2023/07/26 11:30:20;;;;;;;1.77;1.13;;;;;;;19.19;51.04;101211.47;5099300;28;20215;-81